sensor_id;sensor_type;location;lat;lon;timestamp;P1;durP1;ratioP1;P2;durP2;ratioP2
7074;SDS011;3578;51.568;6.932;2022-08-20T00:01:55;34.47;;;23.07;;
7074;SDS011;3578;51.568;6.932;2022-08-20T00:04:22;37.40;;;23.50;;
7074;SDS011;3578;51.568;6.932;2022-08-20T00:06:49;34.60;;;22.80;;
7074;SDS011;3578;51.568;6.932;2022-08-20T00:09:17;30.60;;;21.60;;
7074;SDS011;3578;51.568;6.932;2022-08-20T00:11:44;32.90;;;22.63;;
7074;SDS011;3578;51.568;6.932;2022-08-20T00:14:11;33.20;;;22.67;;
7074;SDS011;3578;51.568;6.932;2022-08-20T00:16:38;34.97;;;23.67;;
7074;SDS011;3578;51.568;6.932;2022-08-20T00:19:06;31.93;;;24.00;;
7074;SDS011;3578;51.568;6.932;2022-08-20T00:21:34;34.17;;;23.97;;
7074;SDS011;3578;51.568;6.932;2022-08-20T00:24:02;38.97;;;24.53;;
7074;SDS011;3578;51.568;6.932;2022-08-20T00:26:30;31.70;;;22.97;;
7074;SDS011;3578;51.568;6.932;2022-08-20T00:28:58;33.70;;;24.40;;
7074;SDS011;3578;51.568;6.932;2022-08-20T00:31:25;33.30;;;24.03;;
7074;SDS011;3578;51.568;6.932;2022-08-20T00:33:52;32.50;;;23.27;;
7074;SDS011;3578;51.568;6.932;2022-08-20T00:36:21;34.63;;;24.83;;
7074;SDS011;3578;51.568;6.932;2022-08-20T00:38:49;34.13;;;25.20;;
7074;SDS011;3578;51.568;6.932;2022-08-20T00:41:16;33.10;;;25.50;;
7074;SDS011;3578;51.568;6.932;2022-08-20T00:43:47;35.43;;;24.17;;
7074;SDS011;3578;51.568;6.932;2022-08-20T00:46:18;32.27;;;23.77;;
7074;SDS011;3578;51.568;6.932;2022-08-20T00:48:49;35.23;;;23.70;;
7074;SDS011;3578;51.568;6.932;2022-08-20T00:51:23;33.93;;;23.47;;
7074;SDS011;3578;51.568;6.932;2022-08-20T00:53:57;36.63;;;23.47;;
7074;SDS011;3578;51.568;6.932;2022-08-20T00:56:30;34.83;;;24.17;;
7074;SDS011;3578;51.568;6.932;2022-08-20T00:58:58;33.70;;;23.95;;
7074;SDS011;3578;51.568;6.932;2022-08-20T01:01:26;33.93;;;23.20;;
7074;SDS011;3578;51.568;6.932;2022-08-20T01:03:54;32.30;;;23.00;;
7074;SDS011;3578;51.568;6.932;2022-08-20T01:06:23;35.10;;;23.30;;
7074;SDS011;3578;51.568;6.932;2022-08-20T01:08:50;42.20;;;25.67;;
7074;SDS011;3578;51.568;6.932;2022-08-20T01:11:18;34.37;;;23.60;;
7074;SDS011;3578;51.568;6.932;2022-08-20T01:13:47;37.53;;;25.17;;
7074;SDS011;3578;51.568;6.932;2022-08-20T01:16:17;42.33;;;25.97;;
7074;SDS011;3578;51.568;6.932;2022-08-20T01:18:50;36.55;;;24.70;;
7074;SDS011;3578;51.568;6.932;2022-08-20T01:21:18;42.30;;;26.20;;
7074;SDS011;3578;51.568;6.932;2022-08-20T01:23:51;36.53;;;24.57;;
7074;SDS011;3578;51.568;6.932;2022-08-20T01:26:27;37.17;;;24.70;;
7074;SDS011;3578;51.568;6.932;2022-08-20T01:29:03;37.07;;;24.37;;
7074;SDS011;3578;51.568;6.932;2022-08-20T01:31:33;38.17;;;25.48;;
7074;SDS011;3578;51.568;6.932;2022-08-20T01:34:03;35.87;;;23.70;;
7074;SDS011;3578;51.568;6.932;2022-08-20T01:36:34;33.70;;;24.17;;
7074;SDS011;3578;51.568;6.932;2022-08-20T01:39:06;45.93;;;26.43;;
7074;SDS011;3578;51.568;6.932;2022-08-20T01:44:29;38.03;;;25.70;;
7074;SDS011;3578;51.568;6.932;2022-08-20T01:47:05;40.97;;;25.63;;
7074;SDS011;3578;51.568;6.932;2022-08-20T01:49:39;41.47;;;26.43;;
7074;SDS011;3578;51.568;6.932;2022-08-20T01:52:11;33.37;;;24.33;;
7074;SDS011;3578;51.568;6.932;2022-08-20T01:54:46;36.30;;;24.50;;
7074;SDS011;3578;51.568;6.932;2022-08-20T01:57:16;29.90;;;21.20;;
7074;SDS011;3578;51.568;6.932;2022-08-20T01:59:46;36.90;;;24.47;;
7074;SDS011;3578;51.568;6.932;2022-08-20T02:02:15;33.33;;;22.57;;
7074;SDS011;3578;51.568;6.932;2022-08-20T02:04:42;33.40;;;23.40;;
7074;SDS011;3578;51.568;6.932;2022-08-20T02:07:12;32.93;;;22.47;;
7074;SDS011;3578;51.568;6.932;2022-08-20T02:09:44;37.37;;;21.57;;
7074;SDS011;3578;51.568;6.932;2022-08-20T02:12:11;33.73;;;22.60;;
7074;SDS011;3578;51.568;6.932;2022-08-20T02:14:41;36.83;;;24.33;;
7074;SDS011;3578;51.568;6.932;2022-08-20T02:17:10;39.20;;;24.40;;
7074;SDS011;3578;51.568;6.932;2022-08-20T02:19:41;37.10;;;22.17;;
7074;SDS011;3578;51.568;6.932;2022-08-20T02:22:22;38.40;;;23.77;;
7074;SDS011;3578;51.568;6.932;2022-08-20T02:24:54;41.30;;;24.80;;
7074;SDS011;3578;51.568;6.932;2022-08-20T02:27:21;33.53;;;22.87;;
7074;SDS011;3578;51.568;6.932;2022-08-20T02:29:50;36.80;;;24.40;;
7074;SDS011;3578;51.568;6.932;2022-08-20T02:32:18;40.00;;;26.27;;
7074;SDS011;3578;51.568;6.932;2022-08-20T02:34:45;32.43;;;21.90;;
7074;SDS011;3578;51.568;6.932;2022-08-20T02:37:13;33.38;;;23.30;;
7074;SDS011;3578;51.568;6.932;2022-08-20T02:39:42;36.43;;;24.37;;
7074;SDS011;3578;51.568;6.932;2022-08-20T02:42:09;35.53;;;23.63;;
7074;SDS011;3578;51.568;6.932;2022-08-20T02:44:37;34.50;;;20.85;;
7074;SDS011;3578;51.568;6.932;2022-08-20T02:47:06;38.03;;;23.23;;
7074;SDS011;3578;51.568;6.932;2022-08-20T02:49:33;37.50;;;24.20;;
7074;SDS011;3578;51.568;6.932;2022-08-20T02:52:00;35.28;;;23.95;;
7074;SDS011;3578;51.568;6.932;2022-08-20T02:54:28;32.47;;;22.60;;
7074;SDS011;3578;51.568;6.932;2022-08-20T02:56:56;35.17;;;22.10;;
7074;SDS011;3578;51.568;6.932;2022-08-20T02:59:23;37.93;;;22.53;;
7074;SDS011;3578;51.568;6.932;2022-08-20T03:01:50;38.20;;;23.10;;
7074;SDS011;3578;51.568;6.932;2022-08-20T03:04:18;37.47;;;24.70;;
7074;SDS011;3578;51.568;6.932;2022-08-20T03:06:45;34.40;;;22.07;;
7074;SDS011;3578;51.568;6.932;2022-08-20T03:09:12;34.30;;;23.27;;
7074;SDS011;3578;51.568;6.932;2022-08-20T03:11:39;37.57;;;23.00;;
7074;SDS011;3578;51.568;6.932;2022-08-20T03:14:06;31.63;;;21.03;;
7074;SDS011;3578;51.568;6.932;2022-08-20T03:16:33;35.33;;;22.93;;
7074;SDS011;3578;51.568;6.932;2022-08-20T03:19:00;34.90;;;22.67;;
7074;SDS011;3578;51.568;6.932;2022-08-20T03:21:28;36.00;;;23.60;;
7074;SDS011;3578;51.568;6.932;2022-08-20T03:23:56;32.17;;;22.33;;
7074;SDS011;3578;51.568;6.932;2022-08-20T03:26:23;26.43;;;19.10;;
7074;SDS011;3578;51.568;6.932;2022-08-20T03:28:50;35.25;;;21.15;;
7074;SDS011;3578;51.568;6.932;2022-08-20T03:31:17;31.87;;;21.30;;
7074;SDS011;3578;51.568;6.932;2022-08-20T03:33:44;31.50;;;20.73;;
7074;SDS011;3578;51.568;6.932;2022-08-20T03:36:11;32.67;;;22.43;;
7074;SDS011;3578;51.568;6.932;2022-08-20T03:38:40;32.17;;;21.97;;
7074;SDS011;3578;51.568;6.932;2022-08-20T03:41:07;31.53;;;22.07;;
7074;SDS011;3578;51.568;6.932;2022-08-20T03:43:34;30.58;;;21.98;;
7074;SDS011;3578;51.568;6.932;2022-08-20T03:46:01;34.10;;;21.30;;
7074;SDS011;3578;51.568;6.932;2022-08-20T03:48:29;31.77;;;20.43;;
7074;SDS011;3578;51.568;6.932;2022-08-20T03:50:56;32.42;;;21.42;;
7074;SDS011;3578;51.568;6.932;2022-08-20T03:53:25;26.42;;;19.15;;
7074;SDS011;3578;51.568;6.932;2022-08-20T03:55:57;26.70;;;18.30;;
7074;SDS011;3578;51.568;6.932;2022-08-20T03:58:29;25.83;;;19.60;;
7074;SDS011;3578;51.568;6.932;2022-08-20T04:00:57;29.87;;;20.90;;
7074;SDS011;3578;51.568;6.932;2022-08-20T04:03:25;28.20;;;18.83;;
7074;SDS011;3578;51.568;6.932;2022-08-20T04:05:53;24.73;;;17.42;;
7074;SDS011;3578;51.568;6.932;2022-08-20T04:08:21;29.50;;;20.60;;
7074;SDS011;3578;51.568;6.932;2022-08-20T04:10:54;31.57;;;20.10;;
7074;SDS011;3578;51.568;6.932;2022-08-20T04:13:24;32.03;;;20.65;;
7074;SDS011;3578;51.568;6.932;2022-08-20T04:15:54;30.70;;;19.60;;
7074;SDS011;3578;51.568;6.932;2022-08-20T04:18:21;26.93;;;19.40;;
7074;SDS011;3578;51.568;6.932;2022-08-20T04:20:50;29.43;;;19.70;;
7074;SDS011;3578;51.568;6.932;2022-08-20T04:23:19;28.83;;;18.10;;
7074;SDS011;3578;51.568;6.932;2022-08-20T04:25:47;30.93;;;18.43;;
7074;SDS011;3578;51.568;6.932;2022-08-20T04:28:20;26.60;;;19.43;;
7074;SDS011;3578;51.568;6.932;2022-08-20T04:30:51;24.25;;;18.42;;
7074;SDS011;3578;51.568;6.932;2022-08-20T04:33:18;28.33;;;18.47;;
7074;SDS011;3578;51.568;6.932;2022-08-20T04:35:48;29.30;;;19.85;;
7074;SDS011;3578;51.568;6.932;2022-08-20T04:38:16;30.47;;;20.27;;
7074;SDS011;3578;51.568;6.932;2022-08-20T04:40:44;29.03;;;19.63;;
7074;SDS011;3578;51.568;6.932;2022-08-20T04:43:26;33.07;;;20.73;;
7074;SDS011;3578;51.568;6.932;2022-08-20T04:45:58;32.00;;;19.98;;
7074;SDS011;3578;51.568;6.932;2022-08-20T04:48:30;29.43;;;19.07;;
7074;SDS011;3578;51.568;6.932;2022-08-20T04:50:58;28.77;;;18.17;;
7074;SDS011;3578;51.568;6.932;2022-08-20T04:53:26;30.63;;;20.17;;
7074;SDS011;3578;51.568;6.932;2022-08-20T04:55:55;30.70;;;21.43;;
7074;SDS011;3578;51.568;6.932;2022-08-20T04:58:26;34.20;;;21.30;;
7074;SDS011;3578;51.568;6.932;2022-08-20T05:00:58;29.30;;;19.40;;
7074;SDS011;3578;51.568;6.932;2022-08-20T05:03:29;30.83;;;20.33;;
7074;SDS011;3578;51.568;6.932;2022-08-20T05:05:57;29.13;;;19.70;;
7074;SDS011;3578;51.568;6.932;2022-08-20T05:08:26;31.80;;;21.10;;
7074;SDS011;3578;51.568;6.932;2022-08-20T05:10:54;28.73;;;18.97;;
7074;SDS011;3578;51.568;6.932;2022-08-20T05:13:22;27.60;;;19.77;;
7074;SDS011;3578;51.568;6.932;2022-08-20T05:15:51;34.33;;;21.17;;
7074;SDS011;3578;51.568;6.932;2022-08-20T05:18:19;31.00;;;20.90;;
7074;SDS011;3578;51.568;6.932;2022-08-20T05:20:50;31.70;;;21.07;;
7074;SDS011;3578;51.568;6.932;2022-08-20T05:23:18;30.30;;;20.60;;
7074;SDS011;3578;51.568;6.932;2022-08-20T05:25:48;28.97;;;20.73;;
7074;SDS011;3578;51.568;6.932;2022-08-20T05:28:17;28.83;;;20.67;;
7074;SDS011;3578;51.568;6.932;2022-08-20T05:30:47;25.60;;;19.80;;
7074;SDS011;3578;51.568;6.932;2022-08-20T05:33:18;26.73;;;19.87;;
7074;SDS011;3578;51.568;6.932;2022-08-20T05:35:49;29.07;;;19.87;;
7074;SDS011;3578;51.568;6.932;2022-08-20T05:38:20;29.20;;;20.23;;
7074;SDS011;3578;51.568;6.932;2022-08-20T05:40:50;28.77;;;19.93;;
7074;SDS011;3578;51.568;6.932;2022-08-20T05:43:20;29.10;;;19.20;;
7074;SDS011;3578;51.568;6.932;2022-08-20T05:45:48;32.27;;;20.60;;
7074;SDS011;3578;51.568;6.932;2022-08-20T05:48:18;25.87;;;19.53;;
7074;SDS011;3578;51.568;6.932;2022-08-20T05:50:48;27.60;;;19.43;;
7074;SDS011;3578;51.568;6.932;2022-08-20T05:53:19;28.60;;;20.65;;
7074;SDS011;3578;51.568;6.932;2022-08-20T05:55:48;26.70;;;20.00;;
7074;SDS011;3578;51.568;6.932;2022-08-20T05:58:17;27.07;;;20.57;;
7074;SDS011;3578;51.568;6.932;2022-08-20T06:00:48;27.17;;;19.47;;
7074;SDS011;3578;51.568;6.932;2022-08-20T06:03:17;25.40;;;19.47;;
7074;SDS011;3578;51.568;6.932;2022-08-20T06:06:02;28.60;;;21.20;;
7074;SDS011;3578;51.568;6.932;2022-08-20T06:08:30;30.67;;;20.27;;
7074;SDS011;3578;51.568;6.932;2022-08-20T06:10:58;27.60;;;19.83;;
7074;SDS011;3578;51.568;6.932;2022-08-20T06:13:25;28.13;;;20.47;;
7074;SDS011;3578;51.568;6.932;2022-08-20T06:15:54;21.57;;;17.90;;
7074;SDS011;3578;51.568;6.932;2022-08-20T06:18:22;24.20;;;18.90;;
7074;SDS011;3578;51.568;6.932;2022-08-20T06:20:49;23.83;;;19.27;;
7074;SDS011;3578;51.568;6.932;2022-08-20T06:23:17;21.90;;;17.10;;
7074;SDS011;3578;51.568;6.932;2022-08-20T06:25:45;25.30;;;18.50;;
7074;SDS011;3578;51.568;6.932;2022-08-20T06:28:14;23.27;;;18.13;;
7074;SDS011;3578;51.568;6.932;2022-08-20T06:30:41;23.27;;;17.47;;
7074;SDS011;3578;51.568;6.932;2022-08-20T06:33:10;21.03;;;17.13;;
7074;SDS011;3578;51.568;6.932;2022-08-20T06:35:37;21.13;;;16.70;;
7074;SDS011;3578;51.568;6.932;2022-08-20T06:38:04;20.70;;;17.00;;
7074;SDS011;3578;51.568;6.932;2022-08-20T06:40:31;19.05;;;15.52;;
7074;SDS011;3578;51.568;6.932;2022-08-20T06:42:59;18.53;;;13.90;;
7074;SDS011;3578;51.568;6.932;2022-08-20T06:45:27;20.45;;;14.13;;
7074;SDS011;3578;51.568;6.932;2022-08-20T06:47:58;17.23;;;13.87;;
7074;SDS011;3578;51.568;6.932;2022-08-20T06:50:29;17.50;;;14.03;;
7074;SDS011;3578;51.568;6.932;2022-08-20T06:53:03;15.80;;;12.47;;
7074;SDS011;3578;51.568;6.932;2022-08-20T06:55:31;13.65;;;12.23;;
7074;SDS011;3578;51.568;6.932;2022-08-20T06:57:59;13.73;;;11.73;;
7074;SDS011;3578;51.568;6.932;2022-08-20T07:00:28;13.43;;;11.13;;
7074;SDS011;3578;51.568;6.932;2022-08-20T07:02:57;15.70;;;11.68;;
7074;SDS011;3578;51.568;6.932;2022-08-20T07:05:25;14.00;;;12.40;;
7074;SDS011;3578;51.568;6.932;2022-08-20T07:07:55;14.23;;;12.73;;
7074;SDS011;3578;51.568;6.932;2022-08-20T07:10:24;16.13;;;13.87;;
7074;SDS011;3578;51.568;6.932;2022-08-20T07:12:52;12.70;;;11.35;;
7074;SDS011;3578;51.568;6.932;2022-08-20T07:15:20;15.40;;;13.10;;
7074;SDS011;3578;51.568;6.932;2022-08-20T07:17:50;16.93;;;13.23;;
7074;SDS011;3578;51.568;6.932;2022-08-20T07:20:20;16.30;;;13.27;;
7074;SDS011;3578;51.568;6.932;2022-08-20T07:22:49;13.50;;;12.20;;
7074;SDS011;3578;51.568;6.932;2022-08-20T07:25:18;17.20;;;12.98;;
7074;SDS011;3578;51.568;6.932;2022-08-20T07:27:46;14.20;;;12.70;;
7074;SDS011;3578;51.568;6.932;2022-08-20T07:30:15;14.10;;;12.57;;
7074;SDS011;3578;51.568;6.932;2022-08-20T07:33:03;13.10;;;11.60;;
7074;SDS011;3578;51.568;6.932;2022-08-20T07:35:30;15.37;;;12.70;;
7074;SDS011;3578;51.568;6.932;2022-08-20T07:37:58;15.67;;;14.10;;
7074;SDS011;3578;51.568;6.932;2022-08-20T07:40:28;15.52;;;12.65;;
7074;SDS011;3578;51.568;6.932;2022-08-20T07:42:58;15.23;;;12.30;;
7074;SDS011;3578;51.568;6.932;2022-08-20T07:45:27;14.17;;;12.70;;
7074;SDS011;3578;51.568;6.932;2022-08-20T07:47:58;13.50;;;12.10;;
7074;SDS011;3578;51.568;6.932;2022-08-20T07:50:34;12.38;;;11.27;;
7074;SDS011;3578;51.568;6.932;2022-08-20T07:53:02;11.48;;;9.68;;
7074;SDS011;3578;51.568;6.932;2022-08-20T07:55:30;14.63;;;9.13;;
7074;SDS011;3578;51.568;6.932;2022-08-20T07:58:00;8.90;;;7.75;;
7074;SDS011;3578;51.568;6.932;2022-08-20T08:00:33;8.27;;;5.73;;
7074;SDS011;3578;51.568;6.932;2022-08-20T08:03:01;6.53;;;6.03;;
7074;SDS011;3578;51.568;6.932;2022-08-20T08:05:28;8.17;;;6.40;;
7074;SDS011;3578;51.568;6.932;2022-08-20T08:07:56;5.13;;;4.77;;
7074;SDS011;3578;51.568;6.932;2022-08-20T08:10:26;7.97;;;5.18;;
7074;SDS011;3578;51.568;6.932;2022-08-20T08:12:54;5.17;;;4.70;;
7074;SDS011;3578;51.568;6.932;2022-08-20T08:15:26;5.60;;;5.00;;
7074;SDS011;3578;51.568;6.932;2022-08-20T08:17:58;4.87;;;4.50;;
7074;SDS011;3578;51.568;6.932;2022-08-20T08:20:32;4.80;;;4.40;;
7074;SDS011;3578;51.568;6.932;2022-08-20T08:23:01;7.13;;;3.70;;
7074;SDS011;3578;51.568;6.932;2022-08-20T08:25:30;4.23;;;3.90;;
7074;SDS011;3578;51.568;6.932;2022-08-20T08:27:57;4.93;;;4.20;;
7074;SDS011;3578;51.568;6.932;2022-08-20T08:30:27;4.15;;;3.85;;
7074;SDS011;3578;51.568;6.932;2022-08-20T08:32:55;5.00;;;4.20;;
7074;SDS011;3578;51.568;6.932;2022-08-20T08:35:40;6.03;;;5.43;;
7074;SDS011;3578;51.568;6.932;2022-08-20T08:38:10;4.47;;;4.07;;
7074;SDS011;3578;51.568;6.932;2022-08-20T08:40:39;6.53;;;3.63;;
7074;SDS011;3578;51.568;6.932;2022-08-20T08:43:06;3.90;;;3.60;;
7074;SDS011;3578;51.568;6.932;2022-08-20T08:45:37;4.35;;;2.50;;
7074;SDS011;3578;51.568;6.932;2022-08-20T08:48:08;2.87;;;2.77;;
7074;SDS011;3578;51.568;6.932;2022-08-20T08:50:37;2.77;;;2.57;;
7074;SDS011;3578;51.568;6.932;2022-08-20T08:53:07;2.80;;;2.53;;
7074;SDS011;3578;51.568;6.932;2022-08-20T08:55:44;3.60;;;2.60;;
7074;SDS011;3578;51.568;6.932;2022-08-20T08:58:11;3.27;;;2.13;;
7074;SDS011;3578;51.568;6.932;2022-08-20T09:00:38;1.92;;;1.80;;
7074;SDS011;3578;51.568;6.932;2022-08-20T09:03:09;2.43;;;2.23;;
7074;SDS011;3578;51.568;6.932;2022-08-20T09:05:52;2.57;;;2.37;;
7074;SDS011;3578;51.568;6.932;2022-08-20T09:08:24;3.50;;;2.73;;
7074;SDS011;3578;51.568;6.932;2022-08-20T09:11:01;3.10;;;2.90;;
7074;SDS011;3578;51.568;6.932;2022-08-20T09:13:30;5.90;;;4.30;;
7074;SDS011;3578;51.568;6.932;2022-08-20T09:15:57;38.07;;;8.73;;
7074;SDS011;3578;51.568;6.932;2022-08-20T09:18:25;62.37;;;16.03;;
7074;SDS011;3578;51.568;6.932;2022-08-20T09:20:52;29.73;;;17.67;;
7074;SDS011;3578;51.568;6.932;2022-08-20T09:23:19;22.13;;;18.10;;
7074;SDS011;3578;51.568;6.932;2022-08-20T09:25:46;20.53;;;18.40;;
7074;SDS011;3578;51.568;6.932;2022-08-20T09:28:14;25.17;;;22.57;;
7074;SDS011;3578;51.568;6.932;2022-08-20T09:30:41;28.97;;;23.80;;
7074;SDS011;3578;51.568;6.932;2022-08-20T09:33:09;21.75;;;19.55;;
7074;SDS011;3578;51.568;6.932;2022-08-20T09:35:36;23.20;;;20.70;;
7074;SDS011;3578;51.568;6.932;2022-08-20T09:38:04;21.90;;;19.30;;
7074;SDS011;3578;51.568;6.932;2022-08-20T09:40:32;19.20;;;16.50;;
7074;SDS011;3578;51.568;6.932;2022-08-20T09:42:59;19.40;;;17.23;;
7074;SDS011;3578;51.568;6.932;2022-08-20T09:45:28;25.23;;;20.13;;
7074;SDS011;3578;51.568;6.932;2022-08-20T09:47:56;25.58;;;20.55;;
7074;SDS011;3578;51.568;6.932;2022-08-20T09:50:24;28.30;;;22.70;;
7074;SDS011;3578;51.568;6.932;2022-08-20T09:52:53;28.80;;;22.42;;
7074;SDS011;3578;51.568;6.932;2022-08-20T09:55:23;22.10;;;19.77;;
7074;SDS011;3578;51.568;6.932;2022-08-20T09:57:57;27.47;;;21.37;;
7074;SDS011;3578;51.568;6.932;2022-08-20T10:00:26;29.47;;;23.20;;
7074;SDS011;3578;51.568;6.932;2022-08-20T10:02:54;24.40;;;19.73;;
7074;SDS011;3578;51.568;6.932;2022-08-20T10:05:21;28.47;;;21.33;;
7074;SDS011;3578;51.568;6.932;2022-08-20T10:07:48;25.77;;;20.90;;
7074;SDS011;3578;51.568;6.932;2022-08-20T10:10:16;23.70;;;19.27;;
7074;SDS011;3578;51.568;6.932;2022-08-20T10:12:43;19.93;;;17.63;;
7074;SDS011;3578;51.568;6.932;2022-08-20T10:15:10;21.83;;;18.47;;
7074;SDS011;3578;51.568;6.932;2022-08-20T10:17:37;21.43;;;17.50;;
7074;SDS011;3578;51.568;6.932;2022-08-20T10:20:09;22.43;;;18.83;;
7074;SDS011;3578;51.568;6.932;2022-08-20T10:22:38;24.70;;;19.67;;
7074;SDS011;3578;51.568;6.932;2022-08-20T10:25:06;23.23;;;18.03;;
7074;SDS011;3578;51.568;6.932;2022-08-20T10:27:33;21.35;;;16.27;;
7074;SDS011;3578;51.568;6.932;2022-08-20T10:30:01;21.40;;;15.60;;
7074;SDS011;3578;51.568;6.932;2022-08-20T10:32:29;19.60;;;17.00;;
7074;SDS011;3578;51.568;6.932;2022-08-20T10:34:56;25.67;;;18.30;;
7074;SDS011;3578;51.568;6.932;2022-08-20T10:37:25;21.07;;;18.13;;
7074;SDS011;3578;51.568;6.932;2022-08-20T10:39:52;22.93;;;19.47;;
7074;SDS011;3578;51.568;6.932;2022-08-20T10:42:20;20.40;;;17.30;;
7074;SDS011;3578;51.568;6.932;2022-08-20T10:44:47;18.33;;;16.40;;
7074;SDS011;3578;51.568;6.932;2022-08-20T10:47:15;18.57;;;16.57;;
7074;SDS011;3578;51.568;6.932;2022-08-20T10:49:46;16.07;;;14.27;;
7074;SDS011;3578;51.568;6.932;2022-08-20T10:52:14;18.00;;;16.10;;
7074;SDS011;3578;51.568;6.932;2022-08-20T10:54:43;24.60;;;16.20;;
7074;SDS011;3578;51.568;6.932;2022-08-20T10:57:12;20.87;;;16.67;;
7074;SDS011;3578;51.568;6.932;2022-08-20T10:59:41;19.03;;;16.37;;
7074;SDS011;3578;51.568;6.932;2022-08-20T11:02:11;16.90;;;15.17;;
7074;SDS011;3578;51.568;6.932;2022-08-20T11:04:38;17.02;;;13.30;;
7074;SDS011;3578;51.568;6.932;2022-08-20T11:07:13;15.53;;;13.00;;
7074;SDS011;3578;51.568;6.932;2022-08-20T11:09:46;21.90;;;13.97;;
7074;SDS011;3578;51.568;6.932;2022-08-20T11:12:14;16.15;;;14.13;;
7074;SDS011;3578;51.568;6.932;2022-08-20T11:14:42;14.68;;;13.15;;
7074;SDS011;3578;51.568;6.932;2022-08-20T11:17:09;13.13;;;11.73;;
7074;SDS011;3578;51.568;6.932;2022-08-20T11:19:39;15.90;;;11.60;;
7074;SDS011;3578;51.568;6.932;2022-08-20T11:22:09;12.70;;;10.80;;
7074;SDS011;3578;51.568;6.932;2022-08-20T11:24:37;14.70;;;9.53;;
7074;SDS011;3578;51.568;6.932;2022-08-20T11:27:05;17.77;;;9.73;;
7074;SDS011;3578;51.568;6.932;2022-08-20T11:29:33;12.37;;;8.47;;
7074;SDS011;3578;51.568;6.932;2022-08-20T11:32:02;10.17;;;9.17;;
7074;SDS011;3578;51.568;6.932;2022-08-20T11:34:30;18.23;;;13.07;;
7074;SDS011;3578;51.568;6.932;2022-08-20T11:36:57;15.77;;;11.33;;
7074;SDS011;3578;51.568;6.932;2022-08-20T11:39:25;15.40;;;11.20;;
7074;SDS011;3578;51.568;6.932;2022-08-20T11:41:52;19.80;;;11.23;;
7074;SDS011;3578;51.568;6.932;2022-08-20T11:44:21;14.87;;;11.37;;
7074;SDS011;3578;51.568;6.932;2022-08-20T11:46:48;16.23;;;11.33;;
7074;SDS011;3578;51.568;6.932;2022-08-20T11:49:15;12.37;;;10.27;;
7074;SDS011;3578;51.568;6.932;2022-08-20T11:51:42;14.47;;;10.50;;
7074;SDS011;3578;51.568;6.932;2022-08-20T11:54:09;15.80;;;12.77;;
7074;SDS011;3578;51.568;6.932;2022-08-20T11:56:36;14.67;;;11.23;;
7074;SDS011;3578;51.568;6.932;2022-08-20T11:59:03;13.60;;;11.00;;
7074;SDS011;3578;51.568;6.932;2022-08-20T12:01:31;12.13;;;8.03;;
7074;SDS011;3578;51.568;6.932;2022-08-20T12:03:58;14.30;;;11.10;;
7074;SDS011;3578;51.568;6.932;2022-08-20T12:06:25;19.70;;;11.20;;
7074;SDS011;3578;51.568;6.932;2022-08-20T12:08:52;12.40;;;11.10;;
7074;SDS011;3578;51.568;6.932;2022-08-20T12:11:20;11.50;;;10.10;;
7074;SDS011;3578;51.568;6.932;2022-08-20T12:13:46;9.23;;;7.30;;
7074;SDS011;3578;51.568;6.932;2022-08-20T12:16:14;9.17;;;6.60;;
7074;SDS011;3578;51.568;6.932;2022-08-20T12:18:43;5.07;;;4.10;;
7074;SDS011;3578;51.568;6.932;2022-08-20T12:21:10;4.40;;;3.80;;
7074;SDS011;3578;51.568;6.932;2022-08-20T12:23:38;4.10;;;3.70;;
7074;SDS011;3578;51.568;6.932;2022-08-20T12:26:05;3.37;;;3.13;;
7074;SDS011;3578;51.568;6.932;2022-08-20T12:28:32;3.40;;;3.10;;
7074;SDS011;3578;51.568;6.932;2022-08-20T12:31:00;6.70;;;3.17;;
7074;SDS011;3578;51.568;6.932;2022-08-20T12:33:27;5.83;;;2.87;;
7074;SDS011;3578;51.568;6.932;2022-08-20T12:35:56;5.17;;;2.70;;
7074;SDS011;3578;51.568;6.932;2022-08-20T12:38:24;5.30;;;2.23;;
7074;SDS011;3578;51.568;6.932;2022-08-20T12:40:51;2.70;;;2.50;;
7074;SDS011;3578;51.568;6.932;2022-08-20T12:43:18;2.60;;;2.30;;
7074;SDS011;3578;51.568;6.932;2022-08-20T12:45:45;3.80;;;2.60;;
7074;SDS011;3578;51.568;6.932;2022-08-20T12:48:12;5.63;;;2.67;;
7074;SDS011;3578;51.568;6.932;2022-08-20T12:50:40;5.67;;;2.63;;
7074;SDS011;3578;51.568;6.932;2022-08-20T12:53:11;3.07;;;2.47;;
7074;SDS011;3578;51.568;6.932;2022-08-20T12:55:38;3.47;;;2.27;;
7074;SDS011;3578;51.568;6.932;2022-08-20T12:58:06;6.07;;;2.60;;
7074;SDS011;3578;51.568;6.932;2022-08-20T13:00:35;7.90;;;2.80;;
7074;SDS011;3578;51.568;6.932;2022-08-20T13:03:06;3.77;;;2.70;;
7074;SDS011;3578;51.568;6.932;2022-08-20T13:05:34;5.00;;;2.20;;
7074;SDS011;3578;51.568;6.932;2022-08-20T13:08:03;6.37;;;3.00;;
7074;SDS011;3578;51.568;6.932;2022-08-20T13:10:35;6.20;;;2.53;;
7074;SDS011;3578;51.568;6.932;2022-08-20T13:13:08;3.40;;;2.50;;
7074;SDS011;3578;51.568;6.932;2022-08-20T13:15:35;4.05;;;2.10;;
7074;SDS011;3578;51.568;6.932;2022-08-20T13:18:04;3.13;;;2.53;;
7074;SDS011;3578;51.568;6.932;2022-08-20T13:20:33;4.27;;;2.17;;
7074;SDS011;3578;51.568;6.932;2022-08-20T13:23:01;5.95;;;2.65;;
7074;SDS011;3578;51.568;6.932;2022-08-20T13:25:29;4.07;;;2.80;;
7074;SDS011;3578;51.568;6.932;2022-08-20T13:27:59;3.30;;;2.27;;
7074;SDS011;3578;51.568;6.932;2022-08-20T13:30:28;7.10;;;2.63;;
7074;SDS011;3578;51.568;6.932;2022-08-20T13:32:57;5.40;;;2.17;;
7074;SDS011;3578;51.568;6.932;2022-08-20T13:35:24;9.70;;;2.93;;
7074;SDS011;3578;51.568;6.932;2022-08-20T13:37:51;4.80;;;2.40;;
7074;SDS011;3578;51.568;6.932;2022-08-20T13:40:18;6.53;;;4.03;;
7074;SDS011;3578;51.568;6.932;2022-08-20T13:42:45;2.80;;;2.40;;
7074;SDS011;3578;51.568;6.932;2022-08-20T13:45:14;4.90;;;3.00;;
7074;SDS011;3578;51.568;6.932;2022-08-20T13:47:41;5.80;;;2.27;;
7074;SDS011;3578;51.568;6.932;2022-08-20T13:50:09;4.30;;;2.43;;
7074;SDS011;3578;51.568;6.932;2022-08-20T13:52:40;7.97;;;2.80;;
7074;SDS011;3578;51.568;6.932;2022-08-20T13:55:09;5.40;;;3.30;;
7074;SDS011;3578;51.568;6.932;2022-08-20T13:57:39;6.07;;;3.07;;
7074;SDS011;3578;51.568;6.932;2022-08-20T14:00:08;3.30;;;2.30;;
7074;SDS011;3578;51.568;6.932;2022-08-20T14:02:40;3.40;;;2.20;;
7074;SDS011;3578;51.568;6.932;2022-08-20T14:05:08;2.13;;;1.93;;
7074;SDS011;3578;51.568;6.932;2022-08-20T14:07:35;3.43;;;2.67;;
7074;SDS011;3578;51.568;6.932;2022-08-20T14:10:04;5.27;;;2.40;;
7074;SDS011;3578;51.568;6.932;2022-08-20T14:12:37;3.07;;;1.77;;
7074;SDS011;3578;51.568;6.932;2022-08-20T14:15:05;6.60;;;2.73;;
7074;SDS011;3578;51.568;6.932;2022-08-20T14:17:34;10.70;;;2.23;;
7074;SDS011;3578;51.568;6.932;2022-08-20T14:20:06;4.10;;;2.30;;
7074;SDS011;3578;51.568;6.932;2022-08-20T14:22:37;6.67;;;2.70;;
7074;SDS011;3578;51.568;6.932;2022-08-20T14:25:04;8.20;;;2.77;;
7074;SDS011;3578;51.568;6.932;2022-08-20T14:27:34;6.43;;;3.00;;
7074;SDS011;3578;51.568;6.932;2022-08-20T14:30:02;5.60;;;2.47;;
7074;SDS011;3578;51.568;6.932;2022-08-20T14:32:32;4.60;;;2.27;;
7074;SDS011;3578;51.568;6.932;2022-08-20T14:34:59;5.27;;;2.17;;
7074;SDS011;3578;51.568;6.932;2022-08-20T14:37:28;11.33;;;2.77;;
7074;SDS011;3578;51.568;6.932;2022-08-20T14:39:59;4.00;;;2.30;;
7074;SDS011;3578;51.568;6.932;2022-08-20T14:42:28;5.83;;;2.43;;
7074;SDS011;3578;51.568;6.932;2022-08-20T14:44:55;10.27;;;2.83;;
7074;SDS011;3578;51.568;6.932;2022-08-20T14:47:27;6.30;;;2.17;;
7074;SDS011;3578;51.568;6.932;2022-08-20T14:49:57;6.00;;;2.10;;
7074;SDS011;3578;51.568;6.932;2022-08-20T14:52:30;7.30;;;2.33;;
7074;SDS011;3578;51.568;6.932;2022-08-20T14:55:00;9.57;;;3.13;;
7074;SDS011;3578;51.568;6.932;2022-08-20T14:57:29;4.80;;;2.90;;
7074;SDS011;3578;51.568;6.932;2022-08-20T14:59:56;7.53;;;2.50;;
7074;SDS011;3578;51.568;6.932;2022-08-20T15:02:23;8.70;;;2.30;;
7074;SDS011;3578;51.568;6.932;2022-08-20T15:04:50;6.50;;;2.40;;
7074;SDS011;3578;51.568;6.932;2022-08-20T15:07:21;11.37;;;2.20;;
7074;SDS011;3578;51.568;6.932;2022-08-20T15:09:51;3.30;;;2.23;;